createdAt,value
2024-04-11T00:00:01.654Z,3.47
2024-04-11T00:00:32.294Z,3.60
2024-04-11T00:01:05.411Z,3.47
2024-04-11T00:01:36.149Z,3.67
2024-04-11T00:02:06.779Z,3.47
2024-04-11T00:02:37.474Z,3.67
2024-04-11T00:03:08.281Z,3.83
2024-04-11T00:03:39.617Z,4.33
2024-04-11T00:04:10.465Z,3.83
2024-04-11T00:04:41.621Z,3.60
2024-04-11T00:05:12.305Z,3.90
2024-04-11T00:05:42.947Z,4.00
2024-04-11T00:06:13.558Z,3.87
2024-04-11T00:06:44.144Z,3.87
2024-04-11T00:07:14.723Z,3.67
2024-04-11T00:07:45.255Z,3.33
2024-04-11T00:08:15.828Z,3.30
2024-04-11T00:08:46.408Z,3.00
2024-04-11T00:09:16.995Z,3.77
2024-04-11T00:09:47.575Z,3.63
2024-04-11T00:10:18.124Z,3.53
2024-04-11T00:10:48.708Z,3.67
2024-04-11T00:11:20.686Z,3.97
2024-04-11T00:11:51.383Z,3.70
2024-04-11T00:12:22.209Z,3.80
2024-04-11T00:12:52.854Z,3.57
2024-04-11T00:13:23.456Z,3.77
2024-04-11T00:13:54.002Z,3.67
2024-04-11T00:14:24.804Z,3.53
2024-04-11T00:14:58.330Z,3.80
2024-04-11T00:15:29.220Z,3.67
2024-04-11T00:15:59.810Z,3.77
2024-04-11T00:16:30.578Z,3.47
2024-04-11T00:17:01.174Z,3.40
2024-04-11T00:17:31.918Z,3.83
2024-04-11T00:18:02.854Z,4.07
2024-04-11T00:18:33.756Z,3.87
2024-04-11T00:19:04.341Z,3.93
2024-04-11T00:19:35.858Z,3.67
2024-04-11T00:20:07.051Z,3.47
2024-04-11T00:20:37.710Z,3.77
2024-04-11T00:21:08.306Z,3.93
2024-04-11T00:21:39.057Z,3.77
2024-04-11T00:22:09.627Z,3.67
2024-04-11T00:22:40.208Z,3.47
2024-04-11T00:23:10.758Z,3.47
2024-04-11T00:23:41.390Z,3.77
2024-04-11T00:24:12.076Z,3.43
2024-04-11T00:24:43.690Z,3.33
2024-04-11T00:25:14.405Z,3.73
2024-04-11T00:25:51.384Z,3.77
2024-04-11T00:26:22.736Z,3.67
2024-04-11T00:26:54.169Z,3.43
2024-04-11T00:27:24.866Z,3.90
2024-04-11T00:27:55.423Z,3.67
2024-04-11T00:28:26.626Z,4.03
2024-04-11T00:28:57.271Z,3.43
2024-04-11T00:29:27.980Z,3.53
2024-04-11T00:29:58.929Z,3.47
2024-04-11T00:30:29.561Z,4.07
2024-04-11T00:31:00.134Z,3.60
2024-04-11T00:31:30.680Z,3.33
2024-04-11T00:32:02.300Z,3.60
2024-04-11T00:32:33.074Z,3.77
2024-04-11T00:33:04.056Z,4.20
2024-04-11T00:33:34.879Z,3.80
2024-04-11T00:34:16.233Z,3.57
2024-04-11T00:34:47.389Z,3.83
2024-04-11T00:35:18.547Z,3.60
2024-04-11T00:35:52.550Z,3.70
2024-04-11T00:36:23.676Z,4.23
2024-04-11T00:36:55.252Z,4.33
2024-04-11T00:37:31.874Z,3.70
2024-04-11T00:38:03.323Z,3.87
2024-04-11T00:38:33.947Z,3.60
2024-04-11T00:39:04.603Z,3.33
2024-04-11T00:39:36.196Z,3.73
2024-04-11T00:40:07.083Z,3.37
2024-04-11T00:40:37.652Z,3.60
2024-04-11T00:41:08.338Z,4.17
2024-04-11T00:41:38.942Z,4.13
2024-04-11T00:42:10.506Z,4.17
2024-04-11T00:42:41.104Z,4.03
2024-04-11T00:43:11.667Z,4.07
2024-04-11T00:43:42.208Z,4.67
2024-04-11T00:44:13.136Z,4.17
2024-04-11T00:44:44.019Z,3.97
2024-04-11T00:45:14.961Z,3.57
2024-04-11T00:45:47.215Z,3.90
2024-04-11T00:46:18.162Z,4.03
2024-04-11T00:46:53.350Z,4.03
2024-04-11T00:47:24.473Z,3.83
2024-04-11T00:47:55.833Z,4.20
2024-04-11T00:48:27.072Z,4.27
2024-04-11T00:48:59.067Z,3.83
2024-04-11T00:49:30.214Z,4.00
2024-04-11T00:50:01.620Z,3.97
2024-04-11T00:50:32.249Z,4.13
2024-04-11T00:51:04.252Z,4.53
2024-04-11T00:51:34.833Z,4.23
2024-04-11T00:52:06.446Z,4.03
2024-04-11T00:52:38.828Z,3.90
2024-04-11T00:53:10.847Z,3.83
2024-04-11T00:53:41.793Z,3.80
2024-04-11T00:54:17.090Z,4.13
2024-04-11T00:54:48.521Z,4.03
2024-04-11T00:55:20.117Z,3.67
2024-04-11T00:55:51.278Z,4.13
2024-04-11T00:56:23.203Z,4.10
2024-04-11T00:56:58.044Z,4.13
2024-04-11T00:57:28.649Z,4.50
2024-04-11T00:57:59.208Z,4.23
2024-04-11T00:58:29.919Z,3.90
2024-04-11T00:59:00.535Z,3.80
2024-04-11T00:59:33.478Z,4.03
2024-04-11T01:00:04.558Z,4.10
2024-04-11T01:00:35.185Z,4.73
2024-04-11T01:01:05.806Z,4.13
2024-04-11T01:01:36.892Z,4.37
2024-04-11T01:02:08.710Z,4.00
2024-04-11T01:02:42.281Z,4.17
2024-04-11T01:03:12.976Z,4.20
2024-04-11T01:03:44.689Z,4.17
2024-04-11T01:04:15.703Z,4.07
2024-04-11T01:04:46.628Z,4.33
2024-04-11T01:05:19.549Z,4.40
2024-04-11T01:05:50.187Z,3.80
2024-04-11T01:06:20.760Z,4.00
2024-04-11T01:07:06.699Z,4.27
2024-04-11T01:07:37.250Z,3.43
2024-04-11T01:08:07.942Z,4.03
2024-04-11T01:08:38.672Z,4.17
2024-04-11T01:09:19.440Z,3.87
2024-04-11T01:09:50.639Z,3.63
2024-04-11T01:10:22.155Z,4.23
2024-04-11T01:10:52.825Z,3.87
2024-04-11T01:11:23.548Z,3.57
2024-04-11T01:11:54.227Z,4.07
2024-04-11T01:12:24.832Z,4.00
2024-04-11T01:12:56.122Z,4.37
2024-04-11T01:13:26.684Z,4.20
2024-04-11T01:13:57.270Z,4.60
2024-04-11T01:14:28.112Z,4.20
2024-04-11T01:14:58.909Z,4.17
2024-04-11T01:15:29.475Z,4.07
2024-04-11T01:16:00.077Z,4.63
2024-04-11T01:16:31.048Z,4.10
2024-04-11T01:17:01.766Z,4.00
2024-04-11T01:17:32.555Z,4.10
2024-04-11T01:18:03.570Z,3.87
2024-04-11T01:18:34.409Z,4.07
2024-04-11T01:19:36.298Z,4.27
2024-04-11T01:20:06.954Z,4.23
2024-04-11T01:20:38.032Z,3.87
2024-04-11T01:21:08.681Z,3.87
2024-04-11T01:21:39.323Z,4.20
2024-04-11T01:22:10.903Z,4.00
2024-04-11T01:22:44.532Z,3.97
2024-04-11T01:23:15.787Z,4.17
2024-04-11T01:23:46.883Z,3.83
2024-04-11T01:24:17.437Z,3.63
2024-04-11T01:24:48.027Z,4.03
2024-04-11T01:25:19.097Z,3.87
2024-04-11T01:25:49.644Z,3.70
2024-04-11T01:26:20.220Z,3.57
2024-04-11T01:26:50.850Z,3.93
2024-04-11T01:27:21.728Z,3.80
2024-04-11T01:27:52.922Z,3.63
2024-04-11T01:28:23.817Z,4.13
2024-04-11T01:28:54.605Z,4.00
2024-04-11T01:29:25.173Z,4.20
2024-04-11T01:29:55.881Z,4.17
2024-04-11T01:30:28.122Z,4.17
2024-04-11T01:30:58.941Z,4.30
2024-04-11T01:31:29.494Z,3.87
2024-04-11T01:32:00.053Z,4.13
2024-04-11T01:32:30.845Z,3.93
2024-04-11T01:33:02.208Z,4.13
2024-04-11T01:33:33.315Z,3.90
2024-04-11T01:34:05.097Z,4.43
2024-04-11T01:34:36.212Z,4.17
2024-04-11T01:35:09.139Z,3.63
2024-04-11T01:35:39.737Z,4.00
2024-04-11T01:36:10.799Z,4.27
2024-04-11T01:36:41.400Z,4.10
2024-04-11T01:37:11.932Z,4.17
2024-04-11T01:37:43.345Z,3.93
2024-04-11T01:38:14.070Z,3.90
2024-04-11T01:38:47.350Z,4.33
2024-04-11T01:39:17.931Z,4.30
2024-04-11T01:39:48.488Z,3.67
2024-04-11T01:40:19.024Z,3.73
2024-04-11T01:40:49.599Z,3.90
2024-04-11T01:41:21.400Z,3.53
2024-04-11T01:41:52.136Z,3.73
2024-04-11T01:42:23.102Z,4.53
2024-04-11T01:42:55.246Z,4.40
2024-04-11T01:43:25.781Z,3.87
2024-04-11T01:43:56.342Z,4.47
2024-04-11T01:44:28.212Z,4.17
2024-04-11T01:44:58.828Z,4.30
2024-04-11T01:45:30.439Z,4.43
2024-04-11T01:46:01.081Z,4.60
2024-04-11T01:46:31.673Z,4.63
2024-04-11T01:47:03.091Z,4.37
2024-04-11T01:47:37.416Z,4.40
2024-04-11T01:48:08.126Z,4.60
2024-04-11T01:48:40.262Z,4.17
2024-04-11T01:49:11.596Z,4.20
2024-04-11T01:49:43.409Z,3.80
2024-04-11T01:50:14.032Z,3.97
2024-04-11T01:50:46.702Z,4.37
2024-04-11T01:51:17.631Z,4.37
2024-04-11T01:51:48.183Z,3.93
2024-04-11T01:52:18.714Z,4.17
2024-04-11T01:52:49.265Z,4.77
2024-04-11T01:53:19.872Z,3.87
2024-04-11T01:53:50.507Z,4.17
2024-04-11T01:54:21.613Z,4.10
2024-04-11T01:54:52.200Z,4.20
2024-04-11T01:55:22.750Z,3.87
2024-04-11T01:55:54.494Z,3.87
2024-04-11T01:56:25.337Z,3.97
2024-04-11T01:56:57.007Z,4.37
2024-04-11T01:57:28.221Z,5.20
2024-04-11T01:58:01.984Z,4.50
2024-04-11T01:58:32.976Z,4.63
2024-04-11T01:59:04.073Z,4.70
2024-04-11T01:59:35.974Z,4.67
2024-04-11T02:00:13.191Z,4.20
2024-04-11T02:00:44.532Z,4.60
2024-04-11T02:01:19.613Z,4.90
2024-04-11T02:01:50.748Z,4.60
2024-04-11T02:02:22.162Z,4.77
2024-04-11T02:02:54.456Z,4.77
2024-04-11T02:03:30.382Z,4.57
2024-04-11T02:04:05.773Z,4.87
2024-04-11T02:04:36.457Z,4.73
2024-04-11T02:05:07.041Z,4.70
2024-04-11T02:05:37.660Z,5.03
2024-04-11T02:06:09.000Z,4.73
2024-04-11T02:06:39.669Z,4.30
2024-04-11T02:07:10.222Z,4.30
2024-04-11T02:07:40.766Z,4.87
2024-04-11T02:08:12.670Z,4.13
2024-04-11T02:08:44.676Z,4.40
2024-04-11T02:09:22.147Z,4.40
2024-04-11T02:09:56.439Z,3.90
2024-04-11T02:10:27.087Z,4.27
2024-04-11T02:10:57.680Z,4.23
2024-04-11T02:11:28.587Z,4.17
2024-04-11T02:11:59.203Z,4.53
2024-04-11T02:12:29.876Z,5.00
2024-04-11T02:13:02.246Z,4.80
2024-04-11T02:13:33.375Z,4.33
2024-04-11T02:14:03.972Z,4.83
2024-04-11T02:14:34.576Z,4.87
2024-04-11T02:15:07.158Z,4.77
2024-04-11T02:15:38.036Z,4.93
2024-04-11T02:16:09.120Z,4.40
2024-04-11T02:16:39.830Z,4.90
2024-04-11T02:17:10.484Z,5.17
2024-04-11T02:17:41.277Z,5.47
2024-04-11T02:18:12.109Z,4.97
2024-04-11T02:18:42.784Z,4.37
2024-04-11T02:19:13.486Z,5.53
2024-04-11T02:19:45.311Z,8.57
2024-04-11T02:20:16.691Z,8.47
2024-04-11T02:20:47.996Z,6.37
2024-04-11T02:21:19.262Z,8.73
2024-04-11T02:21:49.794Z,8.60
2024-04-11T02:22:20.384Z,7.27
2024-04-11T02:22:53.881Z,6.10
2024-04-11T02:23:24.479Z,4.93
2024-04-11T02:23:56.950Z,4.67
2024-04-11T02:24:27.513Z,5.03
2024-04-11T02:24:58.076Z,4.67
2024-04-11T02:25:28.616Z,4.70
2024-04-11T02:25:59.193Z,4.57
2024-04-11T02:26:29.818Z,4.30
2024-04-11T02:27:00.543Z,4.87
2024-04-11T02:27:31.180Z,4.27
2024-04-11T02:28:01.760Z,4.17
2024-04-11T02:28:32.407Z,4.23
2024-04-11T02:29:05.467Z,4.67
2024-04-11T02:29:36.707Z,4.77
2024-04-11T02:30:09.696Z,4.67
2024-04-11T02:30:40.241Z,4.47
2024-04-11T02:31:11.956Z,5.37
2024-04-11T02:31:42.547Z,5.23
2024-04-11T02:32:13.089Z,4.10
2024-04-11T02:32:44.115Z,4.40
2024-04-11T02:33:15.070Z,4.60
2024-04-11T02:33:46.641Z,4.13
2024-04-11T02:34:17.720Z,4.10
2024-04-11T02:34:48.683Z,4.37
2024-04-11T02:35:19.441Z,4.77
2024-04-11T02:35:50.162Z,4.30
2024-04-11T02:36:20.760Z,4.50
2024-04-11T02:36:51.324Z,4.53
2024-04-11T02:37:21.932Z,4.13
2024-04-11T02:37:53.812Z,4.50
2024-04-11T02:38:27.308Z,4.67
2024-04-11T02:38:59.023Z,4.43
2024-04-11T02:39:29.691Z,4.50
2024-04-11T02:40:00.243Z,4.70
2024-04-11T02:40:30.812Z,4.87
2024-04-11T02:41:01.372Z,4.93
2024-04-11T02:41:32.031Z,4.73
2024-04-11T02:42:04.023Z,5.10
2024-04-11T02:42:37.679Z,5.17
2024-04-11T02:43:08.328Z,4.93
2024-04-11T02:43:40.146Z,4.70
2024-04-11T02:44:10.789Z,5.03
2024-04-11T02:44:41.457Z,4.87
2024-04-11T02:45:15.174Z,4.50
2024-04-11T02:45:48.338Z,4.70
2024-04-11T02:46:19.078Z,4.97
2024-04-11T02:46:49.700Z,4.80
2024-04-11T02:47:23.484Z,4.43
2024-04-11T02:47:57.281Z,4.73
2024-04-11T02:48:27.987Z,5.10
2024-04-11T02:48:58.784Z,4.33
2024-04-11T02:49:29.387Z,4.23
2024-04-11T02:49:59.965Z,4.80
2024-04-11T02:50:30.826Z,4.67
2024-04-11T02:51:04.533Z,4.50
2024-04-11T02:51:35.351Z,4.73
2024-04-11T02:52:07.452Z,4.80
2024-04-11T02:52:41.108Z,4.63
2024-04-11T02:53:11.878Z,5.13
2024-04-11T02:53:43.034Z,4.87
2024-04-11T02:54:13.840Z,5.17
2024-04-11T02:54:44.446Z,4.80
2024-04-11T02:55:15.232Z,4.57
2024-04-11T02:55:45.798Z,4.77
2024-04-11T02:56:16.966Z,4.50
2024-04-11T02:56:49.140Z,4.53
2024-04-11T02:57:19.764Z,4.67
2024-04-11T02:57:52.074Z,4.80
2024-04-11T02:58:23.386Z,4.67
2024-04-11T02:58:55.827Z,4.43
2024-04-11T02:59:26.796Z,4.33
2024-04-11T02:59:58.165Z,4.33
2024-04-11T03:00:29.808Z,4.37
2024-04-11T03:01:01.085Z,5.00
2024-04-11T03:01:34.264Z,5.27
2024-04-11T03:02:04.823Z,4.93
2024-04-11T03:02:35.771Z,4.83
2024-04-11T03:03:07.893Z,4.63
2024-04-11T03:03:39.395Z,5.07
2024-04-11T03:04:10.979Z,4.90
2024-04-11T03:04:43.413Z,4.57
2024-04-11T03:05:16.372Z,4.67
2024-04-11T03:05:47.130Z,4.70
2024-04-11T03:06:18.129Z,4.43
2024-04-11T03:06:50.074Z,4.50
2024-04-11T03:07:21.478Z,4.70
2024-04-11T03:07:53.014Z,5.03
2024-04-11T03:08:23.696Z,4.63
2024-04-11T03:08:58.359Z,4.73
2024-04-11T03:09:29.001Z,4.63
2024-04-11T03:09:59.594Z,4.53
2024-04-11T03:10:30.213Z,4.63
2024-04-11T03:11:01.381Z,4.80
2024-04-11T03:11:32.731Z,4.53
2024-04-11T03:12:04.363Z,5.00
2024-04-11T03:12:35.037Z,4.80
2024-04-11T03:13:05.680Z,4.70
2024-04-11T03:13:36.692Z,4.60
2024-04-11T03:14:07.296Z,4.47
2024-04-11T03:14:39.034Z,4.60
2024-04-11T03:15:10.381Z,4.83
2024-04-11T03:15:41.150Z,4.37
2024-04-11T03:16:11.709Z,4.83
2024-04-11T03:16:42.333Z,5.17
2024-04-11T03:17:13.259Z,5.17
2024-04-11T03:17:44.178Z,5.73
2024-04-11T03:18:16.263Z,7.97
2024-04-11T03:18:47.040Z,7.53
2024-04-11T03:19:17.785Z,6.13
2024-04-11T03:19:48.341Z,5.67
2024-04-11T03:20:19.217Z,5.30
2024-04-11T03:20:56.323Z,5.57
2024-04-11T03:21:26.930Z,5.30
2024-04-11T03:21:57.594Z,5.07
2024-04-11T03:22:29.093Z,4.60
2024-04-11T03:23:00.055Z,4.93
2024-04-11T03:23:30.651Z,5.03
2024-04-11T03:24:01.443Z,5.33
2024-04-11T03:24:32.513Z,4.70
2024-04-11T03:25:04.667Z,4.37
2024-04-11T03:25:35.226Z,5.03
2024-04-11T03:26:06.175Z,5.00
2024-04-11T03:26:36.778Z,5.13
2024-04-11T03:27:08.333Z,5.27
2024-04-11T03:27:38.922Z,5.23
2024-04-11T03:28:09.486Z,5.37
2024-04-11T03:28:40.224Z,4.97
2024-04-11T03:29:10.795Z,5.43
2024-04-11T03:29:44.065Z,6.97
2024-04-11T03:30:14.811Z,6.13
2024-04-11T03:30:54.304Z,5.37
2024-04-11T03:31:24.891Z,4.87
2024-04-11T03:31:55.551Z,5.70
2024-04-11T03:32:28.468Z,5.17
2024-04-11T03:33:00.803Z,4.93
2024-04-11T03:33:35.544Z,4.67
2024-04-11T03:34:06.621Z,5.23
2024-04-11T03:34:38.148Z,4.93
2024-04-11T03:35:08.704Z,4.77
2024-04-11T03:35:39.244Z,5.33
2024-04-11T03:36:09.920Z,5.10
2024-04-11T03:36:44.533Z,5.20
2024-04-11T03:37:15.110Z,5.30
2024-04-11T03:37:49.544Z,5.97
2024-04-11T03:38:20.127Z,5.37
2024-04-11T03:38:54.584Z,4.93
2024-04-11T03:39:25.319Z,5.17
2024-04-11T03:39:57.958Z,5.70
2024-04-11T03:40:28.893Z,5.33
2024-04-11T03:41:02.984Z,5.33
2024-04-11T03:41:34.247Z,5.50
2024-04-11T03:42:06.117Z,5.53
2024-04-11T03:42:36.761Z,5.57
2024-04-11T03:43:07.304Z,5.43
2024-04-11T03:43:39.216Z,5.40
2024-04-11T03:44:10.926Z,5.17
2024-04-11T03:44:42.338Z,4.93
2024-04-11T03:45:22.745Z,5.30
2024-04-11T03:46:19.632Z,5.60
2024-04-11T03:46:50.290Z,5.23
2024-04-11T03:47:23.393Z,5.63
2024-04-11T03:47:54.252Z,5.80
2024-04-11T03:48:25.484Z,5.57
2024-04-11T03:48:56.413Z,5.87
2024-04-11T03:49:28.063Z,6.00
2024-04-11T03:49:59.051Z,5.73
2024-04-11T03:50:29.937Z,5.73
2024-04-11T03:51:06.968Z,5.63
2024-04-11T03:51:39.250Z,20.50
2024-04-11T03:52:10.519Z,33.60
2024-04-11T03:52:41.465Z,16.37
2024-04-11T03:53:12.026Z,10.87
2024-04-11T03:53:43.540Z,19.23
2024-04-11T03:54:14.160Z,34.20
2024-04-11T03:54:44.830Z,27.23
2024-04-11T03:55:15.481Z,26.77
2024-04-11T03:55:47.951Z,24.97
2024-04-11T03:56:22.029Z,22.10
2024-04-11T03:56:53.748Z,63.97
2024-04-11T03:57:25.184Z,25.00
2024-04-11T03:57:55.734Z,55.50
2024-04-11T03:58:26.277Z,42.97
2024-04-11T03:58:57.491Z,48.97
2024-04-11T03:59:28.283Z,26.17
2024-04-11T03:59:58.989Z,16.33
2024-04-11T04:00:30.937Z,20.00
2024-04-11T04:01:01.991Z,27.47
2024-04-11T04:01:33.196Z,26.17
2024-04-11T04:02:03.917Z,14.03
2024-04-11T04:02:36.580Z,15.53
2024-04-11T04:03:07.347Z,17.20
2024-04-11T04:03:38.858Z,20.40
2024-04-11T04:04:09.680Z,17.37
2024-04-11T04:04:40.418Z,15.13
2024-04-11T04:05:13.397Z,17.57
2024-04-11T04:05:43.993Z,16.90
2024-04-11T04:06:15.716Z,15.90
2024-04-11T04:06:46.329Z,15.00
2024-04-11T04:07:16.956Z,13.70
2024-04-11T04:07:48.412Z,10.13
2024-04-11T04:08:18.987Z,10.87
2024-04-11T04:08:50.248Z,10.60
2024-04-11T04:09:21.414Z,13.13
2024-04-11T04:09:52.966Z,13.73
2024-04-11T04:10:23.943Z,8.60
2024-04-11T04:10:55.559Z,7.53
2024-04-11T04:11:26.207Z,11.17
2024-04-11T04:11:57.181Z,9.53
2024-04-11T04:12:29.293Z,8.27
2024-04-11T04:12:59.939Z,8.63
2024-04-11T04:13:30.986Z,7.97
2024-04-11T04:14:03.200Z,7.33
2024-04-11T04:14:35.827Z,7.40
2024-04-11T04:15:08.450Z,9.30
2024-04-11T04:15:39.116Z,8.00
2024-04-11T04:16:16.824Z,8.53
2024-04-11T04:16:48.210Z,8.30
2024-04-11T04:17:19.561Z,6.57
2024-04-11T04:17:51.543Z,7.57
2024-04-11T04:18:22.333Z,8.80
2024-04-11T04:18:54.751Z,7.67
2024-04-11T04:19:25.424Z,7.73
2024-04-11T04:19:55.999Z,7.67
2024-04-11T04:20:26.629Z,7.10
2024-04-11T04:20:58.132Z,7.47
2024-04-11T04:21:29.963Z,8.07
2024-04-11T04:22:01.176Z,7.40
2024-04-11T04:22:32.078Z,7.87
2024-04-11T04:23:10.398Z,8.43
2024-04-11T04:23:42.779Z,8.13
2024-04-11T04:24:13.683Z,7.20
2024-04-11T04:24:44.362Z,7.63
2024-04-11T04:25:15.072Z,7.30
2024-04-11T04:25:48.247Z,8.67
2024-04-11T04:26:20.665Z,29.37
2024-04-11T04:26:52.113Z,116.40
2024-04-11T04:27:25.583Z,55.03
2024-04-11T04:27:56.194Z,37.93
2024-04-11T04:28:28.215Z,88.50
2024-04-11T04:28:58.801Z,86.47
2024-04-11T04:29:29.779Z,74.03
2024-04-11T04:30:01.247Z,168.40
2024-04-11T04:30:33.559Z,116.53
2024-04-11T04:31:23.226Z,37.27
2024-04-11T04:31:53.788Z,22.50
2024-04-11T04:32:24.407Z,14.53
2024-04-11T04:32:55.170Z,10.67
2024-04-11T04:33:27.369Z,13.20
2024-04-11T04:33:59.689Z,10.83
2024-04-11T04:34:30.580Z,9.27
2024-04-11T04:35:01.333Z,8.57
2024-04-11T04:35:31.945Z,11.23
2024-04-11T04:36:02.613Z,12.97
2024-04-11T04:36:40.015Z,11.93
2024-04-11T04:37:13.288Z,9.33
2024-04-11T04:37:45.655Z,8.03
2024-04-11T04:38:17.023Z,8.30
2024-04-11T04:38:49.959Z,8.07
2024-04-11T04:39:30.850Z,6.83
2024-04-11T04:40:02.799Z,7.70
2024-04-11T04:40:33.936Z,7.57
2024-04-11T04:41:04.847Z,8.37
2024-04-11T04:41:36.425Z,7.43
2024-04-11T04:42:08.269Z,6.27
2024-04-11T04:42:39.000Z,7.70
2024-04-11T04:43:10.057Z,10.47
2024-04-11T04:43:42.211Z,12.43
2024-04-11T04:44:12.775Z,11.07
2024-04-11T04:44:43.552Z,12.73
2024-04-11T04:45:15.315Z,12.90
2024-04-11T04:45:47.000Z,8.30
2024-04-11T04:46:20.169Z,8.07
2024-04-11T04:46:51.413Z,7.63
2024-04-11T04:47:28.602Z,9.83
2024-04-11T04:47:59.354Z,8.57
2024-04-11T04:48:30.886Z,8.93
2024-04-11T04:49:03.674Z,9.37
2024-04-11T04:49:35.304Z,7.57
2024-04-11T04:50:06.349Z,6.70
2024-04-11T04:50:38.325Z,7.03
2024-04-11T04:51:12.059Z,7.83
2024-04-11T04:51:44.126Z,7.93
2024-04-11T04:52:15.891Z,9.07
2024-04-11T04:52:46.606Z,9.10
2024-04-11T04:53:17.194Z,7.73
2024-04-11T04:53:52.065Z,7.27
2024-04-11T04:54:22.710Z,7.07
2024-04-11T04:54:53.278Z,6.93
2024-04-11T04:55:23.877Z,7.57
2024-04-11T04:55:54.610Z,8.50
2024-04-11T04:56:28.119Z,11.30
2024-04-11T04:56:59.166Z,11.13
2024-04-11T04:57:32.001Z,8.77
2024-04-11T04:58:02.817Z,7.40
2024-04-11T04:58:33.449Z,6.83
2024-04-11T04:59:03.995Z,6.47
2024-04-11T04:59:34.624Z,6.90
2024-04-11T05:00:08.748Z,7.67
2024-04-11T05:00:40.092Z,7.93
2024-04-11T05:01:11.120Z,7.83
2024-04-11T05:01:41.799Z,7.83
2024-04-11T05:02:13.825Z,7.27
2024-04-11T05:02:45.572Z,9.10
2024-04-11T05:03:16.407Z,16.53
2024-04-11T05:03:47.491Z,12.57
2024-04-11T05:04:19.043Z,7.83
2024-04-11T05:04:49.896Z,6.63
2024-04-11T05:05:20.758Z,7.50
2024-04-11T05:05:52.259Z,7.53
2024-04-11T05:06:22.979Z,9.47
2024-04-11T05:06:54.905Z,8.93
2024-04-11T05:07:25.453Z,7.20
2024-04-11T05:07:56.008Z,7.53
2024-04-11T05:08:26.712Z,8.23
2024-04-11T05:08:57.724Z,7.90
2024-04-11T05:09:29.040Z,7.73
2024-04-11T05:09:59.926Z,7.37
2024-04-11T05:10:34.576Z,6.93
2024-04-11T05:11:10.972Z,6.73
2024-04-11T05:11:44.346Z,6.83
2024-04-11T05:12:15.089Z,7.20
2024-04-11T05:12:49.373Z,6.57
2024-04-11T05:13:27.489Z,7.10
2024-04-11T05:13:58.150Z,7.17
2024-04-11T05:14:28.906Z,7.10
2024-04-11T05:15:01.272Z,6.73
2024-04-11T05:15:31.922Z,6.60
2024-04-11T05:16:06.578Z,6.70
2024-04-11T05:16:37.461Z,6.40
2024-04-11T05:17:08.520Z,6.83
2024-04-11T05:17:41.375Z,7.13
2024-04-11T05:18:13.176Z,6.30
2024-04-11T05:18:43.944Z,6.07
2024-04-11T05:19:16.070Z,6.43
2024-04-11T05:19:46.706Z,6.50
2024-04-11T05:20:27.568Z,6.50
2024-04-11T05:21:01.656Z,6.73
2024-04-11T05:21:32.905Z,6.67
2024-04-11T05:22:09.080Z,6.17
2024-04-11T05:22:39.867Z,6.50
2024-04-11T05:23:14.296Z,6.70
2024-04-11T05:23:45.196Z,7.07
2024-04-11T05:24:16.029Z,7.33
2024-04-11T05:24:46.629Z,6.80
2024-04-11T05:25:21.431Z,6.40
2024-04-11T05:25:52.032Z,6.93
2024-04-11T05:26:26.659Z,6.87
2024-04-11T05:26:58.634Z,25.73
2024-04-11T05:27:29.236Z,23.00
2024-04-11T05:28:00.052Z,13.37
2024-04-11T05:28:37.179Z,9.20
2024-04-11T05:29:10.532Z,6.73
2024-04-11T05:29:41.491Z,6.73
2024-04-11T05:30:12.138Z,6.73
2024-04-11T05:30:43.736Z,7.10
2024-04-11T05:31:18.078Z,6.47
2024-04-11T05:31:48.846Z,5.70
2024-04-11T05:32:19.424Z,6.23
2024-04-11T05:32:50.118Z,6.80
2024-04-11T05:33:21.517Z,6.90
2024-04-11T05:33:53.813Z,6.27
2024-04-11T05:34:26.200Z,6.23
2024-04-11T05:34:57.066Z,6.33
2024-04-11T05:35:29.879Z,6.10
2024-04-11T05:36:06.506Z,5.73
2024-04-11T05:36:39.890Z,5.93
2024-04-11T05:37:10.472Z,6.23
2024-04-11T05:37:44.312Z,6.37
2024-04-11T05:38:15.616Z,6.53
2024-04-11T05:38:46.701Z,6.37
2024-04-11T05:39:20.352Z,5.90
2024-04-11T05:39:52.382Z,6.90
2024-04-11T05:40:23.071Z,6.77
2024-04-11T05:40:53.662Z,6.37
2024-04-11T05:41:24.986Z,6.03
2024-04-11T05:41:56.777Z,7.37
2024-04-11T05:42:28.551Z,6.47
2024-04-11T05:43:00.388Z,6.67
2024-04-11T05:43:37.381Z,6.53
2024-04-11T05:44:10.713Z,6.47
2024-04-11T05:44:41.351Z,6.03
2024-04-11T05:45:12.070Z,6.17
2024-04-11T05:45:42.671Z,6.57
2024-04-11T05:46:14.128Z,6.07
2024-04-11T05:46:45.612Z,6.77
2024-04-11T05:47:16.204Z,7.67
2024-04-11T05:47:47.296Z,7.20
2024-04-11T05:48:18.110Z,6.40
2024-04-11T05:48:50.145Z,6.93
2024-04-11T05:49:22.419Z,7.03
2024-04-11T05:49:53.658Z,7.00
2024-04-11T05:50:24.883Z,6.63
2024-04-11T05:50:56.238Z,6.40
2024-04-11T05:51:26.807Z,6.37
2024-04-11T05:51:57.384Z,6.27
2024-04-11T05:52:29.212Z,6.60
2024-04-11T05:52:59.792Z,6.33
2024-04-11T05:53:30.413Z,6.27
2024-04-11T05:54:02.232Z,6.87
2024-04-11T05:54:33.037Z,6.47
2024-04-11T05:55:03.743Z,6.20
2024-04-11T05:55:34.416Z,6.10
2024-04-11T05:56:07.908Z,6.47
2024-04-11T05:56:38.778Z,6.90
2024-04-11T05:57:11.026Z,6.47
2024-04-11T05:57:44.103Z,6.73
2024-04-11T05:58:14.846Z,7.27
2024-04-11T05:58:45.648Z,6.20
2024-04-11T05:59:18.890Z,6.30
2024-04-11T05:59:50.089Z,5.97
2024-04-11T06:00:24.141Z,6.60
2024-04-11T06:00:56.332Z,6.57
2024-04-11T06:01:33.985Z,5.97
2024-04-11T06:02:06.721Z,6.17
2024-04-11T06:02:40.338Z,6.40
2024-04-11T06:03:18.470Z,6.73
2024-04-11T06:03:54.905Z,6.80
2024-04-11T06:04:25.723Z,6.10
2024-04-11T06:04:56.360Z,5.47
2024-04-11T06:05:26.945Z,6.23
2024-04-11T06:05:57.795Z,5.87
2024-04-11T06:06:28.414Z,5.93
2024-04-11T06:06:58.969Z,5.60
2024-04-11T06:07:29.640Z,5.83
2024-04-11T06:08:00.269Z,5.53
2024-04-11T06:08:30.862Z,5.63
2024-04-11T06:09:03.029Z,5.73
2024-04-11T06:09:34.982Z,6.23
2024-04-11T06:10:06.146Z,5.87
2024-04-11T06:10:37.179Z,6.20
2024-04-11T06:11:08.115Z,6.60
2024-04-11T06:11:40.221Z,6.20
2024-04-11T06:12:13.694Z,5.47
2024-04-11T06:12:45.480Z,5.60
2024-04-11T06:13:17.269Z,5.47
2024-04-11T06:13:47.880Z,5.97
2024-04-11T06:14:20.419Z,6.53
2024-04-11T06:14:51.016Z,5.93
2024-04-11T06:15:23.822Z,6.37
2024-04-11T06:15:55.297Z,6.30
2024-04-11T06:16:26.029Z,6.23
2024-04-11T06:16:59.548Z,5.83
2024-04-11T06:17:30.565Z,6.10
2024-04-11T06:18:09.863Z,5.87
2024-04-11T06:18:41.719Z,5.73
2024-04-11T06:19:46.622Z,5.93
2024-04-11T06:20:24.259Z,5.63
2024-04-11T06:21:12.767Z,5.53
2024-04-11T06:21:47.402Z,5.77
2024-04-11T06:22:19.325Z,6.27
2024-04-11T06:22:55.579Z,5.80
2024-04-11T06:23:27.059Z,5.53
2024-04-11T06:23:58.051Z,5.60
2024-04-11T06:24:31.234Z,5.50
2024-04-11T06:25:02.446Z,6.17
2024-04-11T06:25:36.614Z,6.67
2024-04-11T06:26:14.824Z,6.20
2024-04-11T06:26:49.625Z,6.23
2024-04-11T06:27:21.598Z,6.80
2024-04-11T06:27:52.421Z,6.40
2024-04-11T06:28:22.989Z,6.03
2024-04-11T06:28:53.731Z,5.97
2024-04-11T06:29:24.421Z,6.40
2024-04-11T06:29:58.748Z,7.17
2024-04-11T06:30:32.785Z,6.27
2024-04-11T06:31:05.255Z,5.80
2024-04-11T06:31:38.892Z,6.17
2024-04-11T06:32:17.600Z,5.83
2024-04-11T06:32:53.124Z,6.17
2024-04-11T06:33:24.244Z,6.33
2024-04-11T06:33:55.076Z,6.60
2024-04-11T06:34:28.157Z,6.90
2024-04-11T06:35:01.508Z,6.67
2024-04-11T06:35:33.924Z,6.33
2024-04-11T06:36:08.605Z,6.63
2024-04-11T06:36:39.432Z,6.77
2024-04-11T06:37:12.806Z,6.60
2024-04-11T06:37:44.478Z,6.03
2024-04-11T06:38:15.502Z,6.33
2024-04-11T06:38:46.822Z,6.83
2024-04-11T06:39:17.436Z,6.27
2024-04-11T06:39:49.283Z,6.87
2024-04-11T06:40:20.203Z,6.87
2024-04-11T06:40:52.583Z,6.23
2024-04-11T06:41:23.170Z,6.33
2024-04-11T06:41:55.489Z,6.40
2024-04-11T06:42:26.827Z,5.63
2024-04-11T06:42:59.271Z,5.73
2024-04-11T06:43:31.395Z,6.33
2024-04-11T06:44:07.588Z,6.57
2024-04-11T06:44:40.761Z,6.93
2024-04-11T06:45:14.746Z,7.03
2024-04-11T06:45:45.691Z,6.40
2024-04-11T06:46:18.148Z,6.53
2024-04-11T06:46:49.531Z,6.33
2024-04-11T06:47:27.828Z,5.83
2024-04-11T06:48:03.137Z,5.87
2024-04-11T06:48:35.564Z,6.60
2024-04-11T06:49:06.724Z,6.37
2024-04-11T06:49:39.315Z,6.50
2024-04-11T06:50:09.948Z,7.00
2024-04-11T06:50:40.600Z,6.47
2024-04-11T06:51:15.885Z,6.30
2024-04-11T06:51:47.438Z,7.03
2024-04-11T06:52:17.986Z,7.00
2024-04-11T06:52:48.808Z,6.87
2024-04-11T06:53:19.371Z,6.47
2024-04-11T06:53:49.922Z,7.00
2024-04-11T06:54:20.482Z,7.07
2024-04-11T06:54:51.063Z,6.80
2024-04-11T06:55:21.802Z,6.40
2024-04-11T06:55:52.515Z,6.80
2024-04-11T06:56:25.098Z,6.53
2024-04-11T06:56:58.825Z,6.37
2024-04-11T06:57:36.819Z,6.10
2024-04-11T06:58:10.254Z,6.53
2024-04-11T06:58:40.787Z,6.30
2024-04-11T06:59:17.338Z,6.23
2024-04-11T06:59:50.204Z,6.20
2024-04-11T07:00:36.255Z,5.63
2024-04-11T07:01:09.745Z,6.33
2024-04-11T07:01:41.914Z,6.40
2024-04-11T07:02:15.619Z,6.60
2024-04-11T07:02:49.238Z,6.20
2024-04-11T07:03:26.899Z,7.17